»·PEaware :: N80VJ KSBA-KBUR

N80VJ :: KSBA-KBUR

FLIGHT INFORMATION

Flight Status: Arrived
Operator: Privately registered:
United States
More flights under this callsign
Pilot: Christopher S. (28961)
Aircraft: CIRRUS SR-20
(SR20)
More flights by this aircraft type
Origin: KSBA Santa Barbara Mun
United States
Destination: KBUR Bob Hope-Burbank
United States
More flights between these airports :: More routes between these airports
Route:
File this flight plan on PilotEdge
Remarks:
Altitude:
(Current/Filed)
5,500ft
Speed:
(Current/Filed)
140kts
Departed: 11-Jan-21 01:18 PM
Arrived: 11-Jan-21 01:54 PM
Distance/Time
Traveled:
75nm/0:35
Distance/Time
To Go:
Arrived

Flight Plot

Page will automatically refresh every two minutes.


Map Options




Map Legend


Flown Route
Filed Route
Departure Airport
Arrival Airport
Navaid (VOR, NDB)
Fix

Horizontal Profiles

Position Reports

Time Latitude Longitude Heading Altitude Ground
Speed
11-Jan-21 12:57 34.422658 -119.835591 340 14ft 0kts
11-Jan-21 12:58 34.422658 -119.835591 340 14ft 0kts
11-Jan-21 12:59 34.422658 -119.835591 340 14ft 0kts
11-Jan-21 13:00 34.422658 -119.835591 340 14ft 0kts
11-Jan-21 13:01 34.422658 -119.835591 340 14ft 0kts
11-Jan-21 13:02 34.422658 -119.835591 340 14ft 0kts
11-Jan-21 13:03 34.422658 -119.835591 340 14ft 0kts
11-Jan-21 13:04 34.422658 -119.835591 340 14ft 0kts
11-Jan-21 13:05 34.422658 -119.835591 340 14ft 0kts
11-Jan-21 13:06 34.422658 -119.835591 340 14ft 0kts
11-Jan-21 13:07 34.422658 -119.835591 340 14ft 0kts
11-Jan-21 13:08 34.422658 -119.835591 340 14ft 0kts
11-Jan-21 13:08 34.422658 -119.835591 340 14ft 0kts
11-Jan-21 13:10 34.422662 -119.835720 228 13ft 7kts
11-Jan-21 13:11 34.426881 -119.838227 112 12ft 3kts
11-Jan-21 13:11 34.426847 -119.834463 7 11ft 0kts
11-Jan-21 13:12 34.426863 -119.834460 7 11ft 0kts
11-Jan-21 13:13 34.426863 -119.834460 7 11ft 0kts
11-Jan-21 13:15 34.426863 -119.834460 7 11ft 0kts
11-Jan-21 13:15 34.426864 -119.834460 8 11ft 0kts
11-Jan-21 13:16 34.427322 -119.834840 326 12ft 13kts
11-Jan-21 13:17 34.427899 -119.858815 267 544ft 103kts
11-Jan-21 13:18 34.429342 -119.896332 268 1537ft 132kts
11-Jan-21 13:19 34.410966 -119.917432 119 2378ft 106kts
11-Jan-21 13:20 34.405788 -119.881539 105 3603ft 105kts
11-Jan-21 13:21 34.401157 -119.845858 94 4652ft 108kts
11-Jan-21 13:22 34.396766 -119.812326 94 5529ft 117kts
11-Jan-21 13:23 34.391010 -119.766671 94 5509ft 137kts
11-Jan-21 13:24 34.384629 -119.716522 102 5513ft 155kts
11-Jan-21 13:25 34.377697 -119.663673 102 5507ft 151kts
11-Jan-21 13:26 34.371111 -119.613268 102 5507ft 151kts
11-Jan-21 13:27 34.364295 -119.561109 101 5506ft 152kts
11-Jan-21 13:28 34.357485 -119.509235 101 5504ft 154kts
11-Jan-21 13:29 34.350479 -119.456087 99 5501ft 156kts
11-Jan-21 13:30 34.343360 -119.402180 98 5499ft 157kts
11-Jan-21 13:31 34.336216 -119.348221 97 5495ft 157kts
11-Jan-21 13:32 34.328878 -119.292948 96 5490ft 156kts
11-Jan-21 13:33 34.321928 -119.240964 95 5490ft 156kts
11-Jan-21 13:34 34.314862 -119.188130 93 5491ft 153kts
11-Jan-21 13:35 34.307826 -119.135615 92 5495ft 149kts
11-Jan-21 13:36 34.301221 -119.086476 92 5537ft 144kts
11-Jan-21 13:37 34.294598 -119.037286 92 5537ft 140kts
11-Jan-21 13:38 34.288072 -118.989075 92 5537ft 138kts
11-Jan-21 13:39 34.281780 -118.942846 92 5537ft 138kts
11-Jan-21 13:40 34.275457 -118.896781 92 5537ft 137kts
11-Jan-21 13:41 34.269196 -118.851014 92 5537ft 137kts
11-Jan-21 13:42 34.262849 -118.804711 92 5536ft 137kts
11-Jan-21 13:43 34.256517 -118.758720 92 5536ft 138kts
11-Jan-21 13:44 34.249975 -118.711265 92 5536ft 140kts
11-Jan-21 13:45 34.242596 -118.657774 93 5116ft 159kts
11-Jan-21 13:46 34.234342 -118.598401 93 4589ft 166kts
11-Jan-21 13:47 34.226142 -118.539547 94 4074ft 171kts
11-Jan-21 13:48 34.213868 -118.484503 118 3201ft 154kts
11-Jan-21 13:49 34.202933 -118.441178 103 1762ft 103kts
11-Jan-21 13:50 34.198582 -118.414483 93 1702ft 73kts
11-Jan-21 13:51 34.198197 -118.389055 92 1151ft 76kts
11-Jan-21 13:52 34.197847 -118.364263 91 725ft 57kts
11-Jan-21 13:53 34.198599 -118.360235 12 722ft 1kts
11-Jan-21 13:54 34.199841 -118.359388 2 724ft 0kts

Navigation Log

Ident Type
Flight plan parsing failed, navigation log unavailable